sensor_id;sensor_type;location;lat;lon;timestamp;noise_LAeq;noise_LA_min;noise_LA_max;noise_LA01;noise_LA95
48967;Laerm;46511;53.148;8.204;2024-01-30T00:00:30;47.35;41.53;61.13;;
48967;Laerm;46511;53.148;8.204;2024-01-30T00:02:57;45.06;40.89;55.25;;
48967;Laerm;46511;53.148;8.204;2024-01-30T00:05:24;44.53;40.53;52.98;;
48967;Laerm;46511;53.148;8.204;2024-01-30T00:07:51;43.73;39.92;52.47;;
48967;Laerm;46511;53.148;8.204;2024-01-30T00:10:18;44.08;40.43;50.92;;
48967;Laerm;46511;53.148;8.204;2024-01-30T00:12:45;44.03;40.33;53.20;;
48967;Laerm;46511;53.148;8.204;2024-01-30T00:15:12;44.06;40.98;50.48;;
48967;Laerm;46511;53.148;8.204;2024-01-30T00:17:39;43.02;40.71;45.60;;
48967;Laerm;46511;53.148;8.204;2024-01-30T00:20:06;43.87;41.22;55.16;;
48967;Laerm;46511;53.148;8.204;2024-01-30T00:22:35;45.77;42.29;54.36;;
48967;Laerm;46511;53.148;8.204;2024-01-30T00:25:03;47.30;39.81;59.45;;
48967;Laerm;46511;53.148;8.204;2024-01-30T00:27:30;44.95;40.80;65.82;;
48967;Laerm;46511;53.148;8.204;2024-01-30T00:29:57;44.34;40.80;57.28;;
48967;Laerm;46511;53.148;8.204;2024-01-30T00:32:24;48.49;40.33;61.95;;
48967;Laerm;46511;53.148;8.204;2024-01-30T00:34:51;47.02;42.29;53.34;;
48967;Laerm;46511;53.148;8.204;2024-01-30T00:37:18;43.93;40.71;52.94;;
48967;Laerm;46511;53.148;8.204;2024-01-30T00:39:45;43.29;39.46;48.07;;
48967;Laerm;46511;53.148;8.204;2024-01-30T00:42:12;43.37;38.95;53.68;;
48967;Laerm;46511;53.148;8.204;2024-01-30T00:44:39;43.04;40.43;46.66;;
48967;Laerm;46511;53.148;8.204;2024-01-30T00:47:06;43.65;39.81;57.67;;
48967;Laerm;46511;53.148;8.204;2024-01-30T00:49:34;43.53;38.81;53.34;;
48967;Laerm;46511;53.148;8.204;2024-01-30T00:52:01;43.70;40.33;49.15;;
48967;Laerm;46511;53.148;8.204;2024-01-30T00:54:28;43.52;40.43;55.01;;
48967;Laerm;46511;53.148;8.204;2024-01-30T00:56:55;43.44;39.70;50.68;;
48967;Laerm;46511;53.148;8.204;2024-01-30T00:59:22;45.87;39.46;51.09;;
48967;Laerm;46511;53.148;8.204;2024-01-30T01:01:49;49.38;42.42;60.33;;
48967;Laerm;46511;53.148;8.204;2024-01-30T01:04:16;56.24;45.60;68.70;;
48967;Laerm;46511;53.148;8.204;2024-01-30T01:06:44;45.01;40.98;54.08;;
48967;Laerm;46511;53.148;8.204;2024-01-30T01:09:11;45.26;39.34;53.40;;
48967;Laerm;46511;53.148;8.204;2024-01-30T01:11:39;42.28;37.52;44.51;;
48967;Laerm;46511;53.148;8.204;2024-01-30T01:14:06;44.16;39.21;53.72;;
48967;Laerm;46511;53.148;8.204;2024-01-30T01:16:34;42.87;39.92;46.64;;
48967;Laerm;46511;53.148;8.204;2024-01-30T01:19:01;43.34;40.33;47.65;;
48967;Laerm;46511;53.148;8.204;2024-01-30T01:21:28;43.32;39.21;49.43;;
48967;Laerm;46511;53.148;8.204;2024-01-30T01:23:55;47.87;38.81;61.75;;
48967;Laerm;46511;53.148;8.204;2024-01-30T01:26:22;42.50;38.52;46.23;;
48967;Laerm;46511;53.148;8.204;2024-01-30T01:28:49;42.63;38.67;50.98;;
48967;Laerm;46511;53.148;8.204;2024-01-30T01:31:16;48.32;40.23;62.56;;
48967;Laerm;46511;53.148;8.204;2024-01-30T01:33:44;42.94;39.34;51.29;;
48967;Laerm;46511;53.148;8.204;2024-01-30T01:36:12;43.75;38.67;54.67;;
48967;Laerm;46511;53.148;8.204;2024-01-30T01:38:40;43.58;40.62;49.72;;
48967;Laerm;46511;53.148;8.204;2024-01-30T01:41:07;42.91;39.21;46.15;;
48967;Laerm;46511;53.148;8.204;2024-01-30T01:43:34;43.97;39.92;50.89;;
48967;Laerm;46511;53.148;8.204;2024-01-30T01:46:02;43.43;40.71;47.65;;
48967;Laerm;46511;53.148;8.204;2024-01-30T01:48:29;43.13;39.46;47.40;;
48967;Laerm;46511;53.148;8.204;2024-01-30T01:50:57;44.08;39.92;55.13;;
48967;Laerm;46511;53.148;8.204;2024-01-30T01:53:24;42.31;39.08;44.62;;
48967;Laerm;46511;53.148;8.204;2024-01-30T01:55:52;43.72;40.33;52.12;;
48967;Laerm;46511;53.148;8.204;2024-01-30T01:58:21;43.70;40.43;51.59;;
48967;Laerm;46511;53.148;8.204;2024-01-30T02:00:50;43.91;40.13;53.80;;
48967;Laerm;46511;53.148;8.204;2024-01-30T02:03:18;43.80;39.78;55.70;;
48967;Laerm;46511;53.148;8.204;2024-01-30T02:05:47;45.50;40.80;58.48;;
48967;Laerm;46511;53.148;8.204;2024-01-30T02:08:15;59.46;39.58;73.10;;
48967;Laerm;46511;53.148;8.204;2024-01-30T02:10:41;42.96;40.33;47.04;;
48967;Laerm;46511;53.148;8.204;2024-01-30T02:13:08;43.73;40.13;54.07;;
48967;Laerm;46511;53.148;8.204;2024-01-30T02:15:35;43.18;39.58;53.39;;
48967;Laerm;46511;53.148;8.204;2024-01-30T02:18:03;43.78;39.58;50.08;;
48967;Laerm;46511;53.148;8.204;2024-01-30T02:20:30;43.40;40.43;50.40;;
48967;Laerm;46511;53.148;8.204;2024-01-30T02:22:58;44.24;40.80;51.15;;
48967;Laerm;46511;53.148;8.204;2024-01-30T02:25:37;44.46;39.21;55.23;;
48967;Laerm;46511;53.148;8.204;2024-01-30T02:28:04;43.59;39.34;52.22;;
48967;Laerm;46511;53.148;8.204;2024-01-30T02:30:32;44.10;40.98;50.25;;
48967;Laerm;46511;53.148;8.204;2024-01-30T02:32:58;44.68;41.22;55.23;;
48967;Laerm;46511;53.148;8.204;2024-01-30T02:35:25;55.51;42.03;65.45;;
48967;Laerm;46511;53.148;8.204;2024-01-30T02:37:52;54.65;43.77;67.83;;
48967;Laerm;46511;53.148;8.204;2024-01-30T02:40:19;45.07;41.46;50.80;;
48967;Laerm;46511;53.148;8.204;2024-01-30T02:42:45;44.42;41.06;50.17;;
48967;Laerm;46511;53.148;8.204;2024-01-30T02:45:12;44.22;40.71;51.23;;
48967;Laerm;46511;53.148;8.204;2024-01-30T02:47:40;44.09;40.98;49.21;;
48967;Laerm;46511;53.148;8.204;2024-01-30T02:50:06;44.04;39.21;50.06;;
48967;Laerm;46511;53.148;8.204;2024-01-30T02:52:33;51.56;41.22;71.24;;
48967;Laerm;46511;53.148;8.204;2024-01-30T02:55:00;43.87;41.30;47.30;;
48967;Laerm;46511;53.148;8.204;2024-01-30T02:57:26;43.98;40.43;51.96;;
48967;Laerm;46511;53.148;8.204;2024-01-30T02:59:53;43.86;40.13;47.79;;
48967;Laerm;46511;53.148;8.204;2024-01-30T03:02:24;44.25;39.08;54.52;;
48967;Laerm;46511;53.148;8.204;2024-01-30T03:04:51;44.37;41.30;54.21;;
48967;Laerm;46511;53.148;8.204;2024-01-30T03:07:17;43.60;40.13;50.77;;
48967;Laerm;46511;53.148;8.204;2024-01-30T03:09:44;47.17;41.61;59.32;;
48967;Laerm;46511;53.148;8.204;2024-01-30T03:12:11;44.40;41.30;51.18;;
48967;Laerm;46511;53.148;8.204;2024-01-30T03:14:37;45.54;42.35;56.07;;
48967;Laerm;46511;53.148;8.204;2024-01-30T03:17:04;44.04;40.43;49.73;;
48967;Laerm;46511;53.148;8.204;2024-01-30T03:19:30;50.92;41.68;65.56;;
48967;Laerm;46511;53.148;8.204;2024-01-30T03:21:57;44.10;41.46;51.49;;
48967;Laerm;46511;53.148;8.204;2024-01-30T03:24:24;44.75;39.21;51.96;;
48967;Laerm;46511;53.148;8.204;2024-01-30T03:26:50;44.20;41.22;49.12;;
48967;Laerm;46511;53.148;8.204;2024-01-30T03:29:17;44.93;41.82;52.91;;
48967;Laerm;46511;53.148;8.204;2024-01-30T03:31:43;44.47;41.96;49.12;;
48967;Laerm;46511;53.148;8.204;2024-01-30T03:34:10;45.33;41.22;55.03;;
48967;Laerm;46511;53.148;8.204;2024-01-30T03:36:37;44.65;42.53;49.23;;
48967;Laerm;46511;53.148;8.204;2024-01-30T03:39:03;44.62;41.82;49.24;;
48967;Laerm;46511;53.148;8.204;2024-01-30T03:41:31;46.18;41.61;58.33;;
48967;Laerm;46511;53.148;8.204;2024-01-30T03:43:57;44.53;41.30;54.97;;
48967;Laerm;46511;53.148;8.204;2024-01-30T03:46:24;45.25;42.16;52.26;;
48967;Laerm;46511;53.148;8.204;2024-01-30T03:48:51;49.45;42.09;62.65;;
48967;Laerm;46511;53.148;8.204;2024-01-30T03:51:17;45.63;42.88;52.36;;
48967;Laerm;46511;53.148;8.204;2024-01-30T03:53:44;44.66;42.47;49.47;;
48967;Laerm;46511;53.148;8.204;2024-01-30T03:56:12;45.83;42.71;54.01;;
48967;Laerm;46511;53.148;8.204;2024-01-30T03:58:41;45.68;43.39;54.52;;
48967;Laerm;46511;53.148;8.204;2024-01-30T04:01:13;46.51;43.58;54.90;;
48967;Laerm;46511;53.148;8.204;2024-01-30T04:03:40;51.75;42.82;66.72;;
48967;Laerm;46511;53.148;8.204;2024-01-30T04:06:08;59.98;44.03;72.76;;
48967;Laerm;46511;53.148;8.204;2024-01-30T04:08:35;51.51;42.93;68.60;;
48967;Laerm;46511;53.148;8.204;2024-01-30T04:11:05;46.12;43.42;51.32;;
48967;Laerm;46511;53.148;8.204;2024-01-30T04:13:33;47.05;43.77;53.35;;
48967;Laerm;46511;53.148;8.204;2024-01-30T04:16:00;46.90;44.15;52.17;;
48967;Laerm;46511;53.148;8.204;2024-01-30T04:18:29;46.41;43.77;62.08;;
48967;Laerm;46511;53.148;8.204;2024-01-30T04:20:56;46.18;43.39;52.09;;
48967;Laerm;46511;53.148;8.204;2024-01-30T04:23:22;51.44;44.31;65.78;;
48967;Laerm;46511;53.148;8.204;2024-01-30T04:25:49;46.25;43.44;52.27;;
48967;Laerm;46511;53.148;8.204;2024-01-30T04:28:16;50.31;44.23;61.64;;
48967;Laerm;46511;53.148;8.204;2024-01-30T04:30:42;52.42;44.76;65.92;;
48967;Laerm;46511;53.148;8.204;2024-01-30T04:33:14;55.40;44.35;69.36;;
48967;Laerm;46511;53.148;8.204;2024-01-30T04:35:41;46.46;43.94;52.40;;
48967;Laerm;46511;53.148;8.204;2024-01-30T04:38:08;51.55;43.99;65.76;;
48967;Laerm;46511;53.148;8.204;2024-01-30T04:40:35;51.91;45.20;65.50;;
48967;Laerm;46511;53.148;8.204;2024-01-30T04:43:01;52.97;44.20;65.88;;
48967;Laerm;46511;53.148;8.204;2024-01-30T04:45:28;51.09;44.31;64.35;;
48967;Laerm;46511;53.148;8.204;2024-01-30T04:47:55;47.47;44.65;58.14;;
48967;Laerm;46511;53.148;8.204;2024-01-30T04:50:21;50.66;44.31;63.75;;
48967;Laerm;46511;53.148;8.204;2024-01-30T04:52:48;61.21;44.76;73.30;;
48967;Laerm;46511;53.148;8.204;2024-01-30T04:55:19;52.11;44.69;64.86;;
48967;Laerm;46511;53.148;8.204;2024-01-30T04:57:45;52.28;44.90;68.06;;
48967;Laerm;46511;53.148;8.204;2024-01-30T05:00:12;48.23;44.43;55.51;;
48967;Laerm;46511;53.148;8.204;2024-01-30T05:02:39;47.72;44.51;54.77;;
48967;Laerm;46511;53.148;8.204;2024-01-30T05:05:06;50.67;44.51;64.55;;
48967;Laerm;46511;53.148;8.204;2024-01-30T05:07:32;47.84;44.94;56.63;;
48967;Laerm;46511;53.148;8.204;2024-01-30T05:09:59;47.61;43.94;52.79;;
48967;Laerm;46511;53.148;8.204;2024-01-30T05:12:26;49.14;44.15;59.30;;
48967;Laerm;46511;53.148;8.204;2024-01-30T05:14:57;52.50;44.65;68.67;;
48967;Laerm;46511;53.148;8.204;2024-01-30T05:17:24;51.63;45.63;63.03;;
48967;Laerm;46511;53.148;8.204;2024-01-30T05:19:55;51.27;45.11;64.36;;
48967;Laerm;46511;53.148;8.204;2024-01-30T05:22:22;51.36;45.83;62.68;;
48967;Laerm;46511;53.148;8.204;2024-01-30T05:24:48;53.36;46.73;62.00;;
48967;Laerm;46511;53.148;8.204;2024-01-30T05:27:20;51.17;45.36;61.25;;
48967;Laerm;46511;53.148;8.204;2024-01-30T05:29:51;54.96;45.48;68.52;;
48967;Laerm;46511;53.148;8.204;2024-01-30T05:32:17;53.62;45.83;64.81;;
48967;Laerm;46511;53.148;8.204;2024-01-30T05:34:44;53.72;45.33;69.50;;
48967;Laerm;46511;53.148;8.204;2024-01-30T05:37:11;51.35;45.63;61.47;;
48967;Laerm;46511;53.148;8.204;2024-01-30T05:39:41;54.23;45.42;67.14;;
48967;Laerm;46511;53.148;8.204;2024-01-30T05:42:07;54.42;45.57;66.21;;
48967;Laerm;46511;53.148;8.204;2024-01-30T05:44:33;51.59;45.91;64.35;;
48967;Laerm;46511;53.148;8.204;2024-01-30T05:47:00;53.99;46.57;63.86;;
48967;Laerm;46511;53.148;8.204;2024-01-30T05:49:26;51.32;46.38;59.87;;
48967;Laerm;46511;53.148;8.204;2024-01-30T05:51:53;53.25;45.91;67.50;;
48967;Laerm;46511;53.148;8.204;2024-01-30T05:54:19;54.50;47.59;66.88;;
48967;Laerm;46511;53.148;8.204;2024-01-30T05:56:45;51.81;47.74;64.21;;
48967;Laerm;46511;53.148;8.204;2024-01-30T05:59:12;52.22;46.30;62.26;;
48967;Laerm;46511;53.148;8.204;2024-01-30T06:01:46;57.18;46.55;72.67;;
48967;Laerm;46511;53.148;8.204;2024-01-30T06:04:13;56.40;45.80;67.45;;
48967;Laerm;46511;53.148;8.204;2024-01-30T06:06:39;53.76;46.25;65.17;;
48967;Laerm;46511;53.148;8.204;2024-01-30T06:09:06;53.57;46.38;64.23;;
48967;Laerm;46511;53.148;8.204;2024-01-30T06:11:40;54.46;47.48;65.15;;
48967;Laerm;46511;53.148;8.204;2024-01-30T06:14:11;56.76;47.52;66.19;;
48967;Laerm;46511;53.148;8.204;2024-01-30T06:16:37;55.64;47.79;69.95;;
48967;Laerm;46511;53.148;8.204;2024-01-30T06:19:09;56.78;47.84;66.45;;
48967;Laerm;46511;53.148;8.204;2024-01-30T06:21:35;58.53;46.28;68.06;;
48967;Laerm;46511;53.148;8.204;2024-01-30T06:24:05;55.88;47.06;68.43;;
48967;Laerm;46511;53.148;8.204;2024-01-30T06:26:36;56.68;46.62;66.43;;
48967;Laerm;46511;53.148;8.204;2024-01-30T06:29:03;58.41;48.55;67.73;;
48967;Laerm;46511;53.148;8.204;2024-01-30T06:31:29;50.65;46.57;58.02;;
48967;Laerm;46511;53.148;8.204;2024-01-30T06:33:55;58.20;48.00;68.30;;
48967;Laerm;46511;53.148;8.204;2024-01-30T06:36:22;55.44;48.25;64.41;;
48967;Laerm;46511;53.148;8.204;2024-01-30T06:38:48;58.69;48.13;72.18;;
48967;Laerm;46511;53.148;8.204;2024-01-30T06:41:15;56.67;47.59;66.47;;
48967;Laerm;46511;53.148;8.204;2024-01-30T06:43:42;56.56;47.36;67.33;;
48967;Laerm;46511;53.148;8.204;2024-01-30T06:46:08;57.34;46.84;66.60;;
48967;Laerm;46511;53.148;8.204;2024-01-30T06:48:35;57.40;49.56;69.15;;
48967;Laerm;46511;53.148;8.204;2024-01-30T06:51:01;58.83;48.98;67.99;;
48967;Laerm;46511;53.148;8.204;2024-01-30T06:53:33;61.11;49.07;81.11;;
48967;Laerm;46511;53.148;8.204;2024-01-30T06:56:05;59.16;48.90;67.32;;
48967;Laerm;46511;53.148;8.204;2024-01-30T06:58:31;57.85;48.31;66.31;;
48967;Laerm;46511;53.148;8.204;2024-01-30T07:00:58;61.77;50.23;76.11;;
48967;Laerm;46511;53.148;8.204;2024-01-30T07:03:25;58.49;51.07;70.02;;
48967;Laerm;46511;53.148;8.204;2024-01-30T07:05:52;58.60;50.85;75.31;;
48967;Laerm;46511;53.148;8.204;2024-01-30T07:08:19;57.83;50.68;66.62;;
48967;Laerm;46511;53.148;8.204;2024-01-30T07:10:47;62.52;49.56;74.39;;
48967;Laerm;46511;53.148;8.204;2024-01-30T07:13:18;55.97;48.54;64.06;;
48967;Laerm;46511;53.148;8.204;2024-01-30T07:15:45;57.52;49.36;69.13;;
48967;Laerm;46511;53.148;8.204;2024-01-30T07:18:15;58.28;49.49;68.26;;
48967;Laerm;46511;53.148;8.204;2024-01-30T07:20:47;55.30;48.31;65.20;;
48967;Laerm;46511;53.148;8.204;2024-01-30T07:23:15;58.92;50.24;68.17;;
48967;Laerm;46511;53.148;8.204;2024-01-30T07:25:48;56.77;49.14;66.36;;
48967;Laerm;46511;53.148;8.204;2024-01-30T07:28:22;55.72;48.64;66.41;;
48967;Laerm;46511;53.148;8.204;2024-01-30T07:30:53;57.91;48.02;67.87;;
48967;Laerm;46511;53.148;8.204;2024-01-30T07:33:25;58.91;49.24;70.52;;
48967;Laerm;46511;53.148;8.204;2024-01-30T07:35:56;57.30;48.18;66.94;;
48967;Laerm;46511;53.148;8.204;2024-01-30T07:38:28;58.18;47.86;70.57;;
48967;Laerm;46511;53.148;8.204;2024-01-30T07:41:02;55.60;48.21;65.07;;
48967;Laerm;46511;53.148;8.204;2024-01-30T07:43:34;57.76;48.03;67.05;;
48967;Laerm;46511;53.148;8.204;2024-01-30T07:46:05;56.05;47.76;66.89;;
48967;Laerm;46511;53.148;8.204;2024-01-30T07:48:37;57.65;48.13;69.45;;
48967;Laerm;46511;53.148;8.204;2024-01-30T07:51:08;57.10;46.91;68.51;;
48967;Laerm;46511;53.148;8.204;2024-01-30T07:53:35;56.55;46.76;66.31;;
48967;Laerm;46511;53.148;8.204;2024-01-30T07:56:06;56.39;47.48;65.05;;
48967;Laerm;46511;53.148;8.204;2024-01-30T07:58:37;58.79;47.57;75.19;;
48967;Laerm;46511;53.148;8.204;2024-01-30T08:01:09;53.90;46.15;64.46;;
48967;Laerm;46511;53.148;8.204;2024-01-30T08:03:35;56.55;46.33;69.44;;
48967;Laerm;46511;53.148;8.204;2024-01-30T08:06:08;58.17;46.75;68.48;;
48967;Laerm;46511;53.148;8.204;2024-01-30T08:08:39;54.60;46.91;66.23;;
48967;Laerm;46511;53.148;8.204;2024-01-30T08:11:10;57.38;47.10;68.02;;
48967;Laerm;46511;53.148;8.204;2024-01-30T08:13:42;62.88;46.71;77.80;;
48967;Laerm;46511;53.148;8.204;2024-01-30T08:16:13;53.29;46.38;66.63;;
48967;Laerm;46511;53.148;8.204;2024-01-30T08:18:44;62.51;48.93;76.72;;
48967;Laerm;46511;53.148;8.204;2024-01-30T08:21:16;65.55;49.02;80.84;;
48967;Laerm;46511;53.148;8.204;2024-01-30T08:23:47;56.67;45.48;66.47;;
48967;Laerm;46511;53.148;8.204;2024-01-30T08:26:18;54.02;47.52;64.53;;
48967;Laerm;46511;53.148;8.204;2024-01-30T08:28:50;55.31;46.94;64.53;;
48967;Laerm;46511;53.148;8.204;2024-01-30T08:31:21;55.83;46.78;66.32;;
48967;Laerm;46511;53.148;8.204;2024-01-30T08:33:52;55.58;46.38;71.91;;
48967;Laerm;46511;53.148;8.204;2024-01-30T08:36:25;58.16;46.45;65.94;;
48967;Laerm;46511;53.148;8.204;2024-01-30T08:38:56;61.17;48.77;72.30;;
48967;Laerm;46511;53.148;8.204;2024-01-30T08:41:27;57.34;47.68;66.41;;
48967;Laerm;46511;53.148;8.204;2024-01-30T08:43:54;55.32;46.55;65.70;;
48967;Laerm;46511;53.148;8.204;2024-01-30T08:46:25;55.38;46.48;64.96;;
48967;Laerm;46511;53.148;8.204;2024-01-30T08:48:57;55.96;46.20;67.33;;
48967;Laerm;46511;53.148;8.204;2024-01-30T08:51:28;53.97;45.98;67.57;;
48967;Laerm;46511;53.148;8.204;2024-01-30T08:53:59;58.29;47.30;72.28;;
48967;Laerm;46511;53.148;8.204;2024-01-30T08:56:26;55.23;45.42;66.98;;
48967;Laerm;46511;53.148;8.204;2024-01-30T08:58:57;57.45;44.65;72.46;;
48967;Laerm;46511;53.148;8.204;2024-01-30T09:01:28;55.19;46.33;66.26;;
48967;Laerm;46511;53.148;8.204;2024-01-30T09:04:00;57.19;45.42;65.25;;
48967;Laerm;46511;53.148;8.204;2024-01-30T09:06:31;54.97;46.20;67.28;;
48967;Laerm;46511;53.148;8.204;2024-01-30T09:09:03;53.33;45.66;65.92;;
48967;Laerm;46511;53.148;8.204;2024-01-30T09:11:35;60.69;46.15;74.84;;
48967;Laerm;46511;53.148;8.204;2024-01-30T09:14:07;58.49;48.58;72.13;;
48967;Laerm;46511;53.148;8.204;2024-01-30T09:16:39;58.35;45.42;74.34;;
48967;Laerm;46511;53.148;8.204;2024-01-30T09:19:10;54.69;45.54;66.32;;
48967;Laerm;46511;53.148;8.204;2024-01-30T09:21:42;55.37;45.91;66.41;;
48967;Laerm;46511;53.148;8.204;2024-01-30T09:24:13;53.82;45.57;66.89;;
48967;Laerm;46511;53.148;8.204;2024-01-30T09:26:40;59.87;45.45;77.53;;
48967;Laerm;46511;53.148;8.204;2024-01-30T09:29:11;53.73;46.28;72.05;;
48967;Laerm;46511;53.148;8.204;2024-01-30T09:31:45;55.26;46.18;65.86;;
48967;Laerm;46511;53.148;8.204;2024-01-30T09:34:17;59.99;45.86;73.38;;
48967;Laerm;46511;53.148;8.204;2024-01-30T09:36:48;63.69;48.00;77.02;;
48967;Laerm;46511;53.148;8.204;2024-01-30T09:39:19;57.46;46.38;69.21;;
48967;Laerm;46511;53.148;8.204;2024-01-30T09:42:04;56.84;46.10;68.77;;
48967;Laerm;46511;53.148;8.204;2024-01-30T09:44:38;55.44;45.89;65.17;;
48967;Laerm;46511;53.148;8.204;2024-01-30T09:47:10;54.52;45.54;62.85;;
48967;Laerm;46511;53.148;8.204;2024-01-30T09:49:42;55.98;45.80;67.66;;
48967;Laerm;46511;53.148;8.204;2024-01-30T09:52:14;58.49;44.76;67.67;;
48967;Laerm;46511;53.148;8.204;2024-01-30T09:54:47;50.22;44.92;63.42;;
48967;Laerm;46511;53.148;8.204;2024-01-30T09:57:20;52.73;45.42;67.01;;
48967;Laerm;46511;53.148;8.204;2024-01-30T09:59:52;58.93;45.75;72.07;;
48967;Laerm;46511;53.148;8.204;2024-01-30T10:02:25;55.52;44.97;72.83;;
48967;Laerm;46511;53.148;8.204;2024-01-30T10:04:52;54.07;44.83;67.19;;
48967;Laerm;46511;53.148;8.204;2024-01-30T10:07:23;55.91;44.62;67.17;;
48967;Laerm;46511;53.148;8.204;2024-01-30T10:09:49;55.18;44.62;66.47;;
48967;Laerm;46511;53.148;8.204;2024-01-30T10:12:16;55.14;44.51;65.23;;
48967;Laerm;46511;53.148;8.204;2024-01-30T10:14:47;60.56;45.33;76.99;;
48967;Laerm;46511;53.148;8.204;2024-01-30T10:17:19;57.23;45.01;68.62;;
48967;Laerm;46511;53.148;8.204;2024-01-30T10:19:47;52.16;44.80;61.03;;
48967;Laerm;46511;53.148;8.204;2024-01-30T10:22:19;57.44;45.91;69.56;;
48967;Laerm;46511;53.148;8.204;2024-01-30T10:24:50;55.23;45.99;63.63;;
48967;Laerm;46511;53.148;8.204;2024-01-30T10:27:26;54.40;44.23;67.87;;
48967;Laerm;46511;53.148;8.204;2024-01-30T10:29:53;54.82;44.11;65.42;;
48967;Laerm;46511;53.148;8.204;2024-01-30T10:32:25;57.34;43.94;68.41;;
48967;Laerm;46511;53.148;8.204;2024-01-30T10:34:57;56.49;45.11;68.60;;
48967;Laerm;46511;53.148;8.204;2024-01-30T10:37:25;54.10;44.27;65.11;;
48967;Laerm;46511;53.148;8.204;2024-01-30T10:40:03;55.07;44.19;64.00;;
48967;Laerm;46511;53.148;8.204;2024-01-30T10:42:36;55.06;43.77;64.80;;
48967;Laerm;46511;53.148;8.204;2024-01-30T10:45:10;54.95;43.49;76.83;;
48967;Laerm;46511;53.148;8.204;2024-01-30T10:47:46;56.11;43.44;64.74;;
48967;Laerm;46511;53.148;8.204;2024-01-30T10:50:19;57.89;44.27;69.89;;
48967;Laerm;46511;53.148;8.204;2024-01-30T10:52:52;53.74;43.54;66.50;;
48967;Laerm;46511;53.148;8.204;2024-01-30T10:55:25;52.43;43.86;66.77;;
48967;Laerm;46511;53.148;8.204;2024-01-30T10:58:00;55.48;44.15;65.85;;
48967;Laerm;46511;53.148;8.204;2024-01-30T11:00:31;56.03;43.68;68.72;;
48967;Laerm;46511;53.148;8.204;2024-01-30T11:03:04;59.02;44.54;69.10;;
48967;Laerm;46511;53.148;8.204;2024-01-30T11:05:36;55.92;43.63;65.31;;
48967;Laerm;46511;53.148;8.204;2024-01-30T11:08:14;57.70;43.86;70.64;;
48967;Laerm;46511;53.148;8.204;2024-01-30T11:10:48;56.49;44.03;69.71;;
48967;Laerm;46511;53.148;8.204;2024-01-30T11:13:15;52.87;44.27;66.69;;
48967;Laerm;46511;53.148;8.204;2024-01-30T11:15:47;57.35;44.11;69.03;;
48967;Laerm;46511;53.148;8.204;2024-01-30T11:18:26;55.77;43.72;68.25;;
48967;Laerm;46511;53.148;8.204;2024-01-30T11:20:59;55.55;44.11;69.55;;
48967;Laerm;46511;53.148;8.204;2024-01-30T11:23:35;53.98;44.11;64.45;;
48967;Laerm;46511;53.148;8.204;2024-01-30T11:26:10;56.09;44.27;67.14;;
48967;Laerm;46511;53.148;8.204;2024-01-30T11:28:41;57.64;46.13;68.22;;
48967;Laerm;46511;53.148;8.204;2024-01-30T11:31:18;56.58;43.90;67.82;;
48967;Laerm;46511;53.148;8.204;2024-01-30T11:33:52;56.48;43.29;66.90;;
48967;Laerm;46511;53.148;8.204;2024-01-30T11:36:25;54.89;45.04;64.21;;
48967;Laerm;46511;53.148;8.204;2024-01-30T11:38:58;55.46;43.90;64.66;;
48967;Laerm;46511;53.148;8.204;2024-01-30T11:41:30;55.45;44.97;68.36;;
48967;Laerm;46511;53.148;8.204;2024-01-30T11:43:56;58.00;43.89;75.76;;
48967;Laerm;46511;53.148;8.204;2024-01-30T11:46:27;59.69;44.94;70.67;;
48967;Laerm;46511;53.148;8.204;2024-01-30T11:48:59;58.89;45.39;69.60;;
48967;Laerm;46511;53.148;8.204;2024-01-30T11:51:31;59.72;45.77;67.56;;
48967;Laerm;46511;53.148;8.204;2024-01-30T11:54:02;55.47;43.68;66.16;;
48967;Laerm;46511;53.148;8.204;2024-01-30T11:56:29;54.29;44.11;66.22;;
48967;Laerm;46511;53.148;8.204;2024-01-30T11:59:01;61.69;43.68;78.50;;
48967;Laerm;46511;53.148;8.204;2024-01-30T12:01:33;56.75;43.72;74.12;;
48967;Laerm;46511;53.148;8.204;2024-01-30T12:04:04;54.63;43.54;73.36;;
48967;Laerm;46511;53.148;8.204;2024-01-30T12:06:40;49.92;43.63;62.74;;
48967;Laerm;46511;53.148;8.204;2024-01-30T12:09:11;56.69;44.23;70.33;;
48967;Laerm;46511;53.148;8.204;2024-01-30T12:11:48;54.72;43.77;70.41;;
48967;Laerm;46511;53.148;8.204;2024-01-30T12:14:22;54.94;43.58;71.68;;
48967;Laerm;46511;53.148;8.204;2024-01-30T12:16:54;54.27;44.54;69.47;;
48967;Laerm;46511;53.148;8.204;2024-01-30T12:19:25;51.86;43.54;66.18;;
48967;Laerm;46511;53.148;8.204;2024-01-30T12:21:57;56.98;43.29;67.94;;
48967;Laerm;46511;53.148;8.204;2024-01-30T12:24:30;55.18;43.54;78.69;;
48967;Laerm;46511;53.148;8.204;2024-01-30T12:27:02;57.80;45.66;71.44;;
48967;Laerm;46511;53.148;8.204;2024-01-30T12:29:33;54.19;43.49;65.27;;
48967;Laerm;46511;53.148;8.204;2024-01-30T12:32:05;55.63;45.45;70.27;;
48967;Laerm;46511;53.148;8.204;2024-01-30T12:34:40;56.86;45.11;68.56;;
48967;Laerm;46511;53.148;8.204;2024-01-30T12:37:12;56.45;44.03;67.10;;
48967;Laerm;46511;53.148;8.204;2024-01-30T12:39:45;58.94;43.99;69.59;;
48967;Laerm;46511;53.148;8.204;2024-01-30T12:42:18;53.33;43.86;61.57;;
48967;Laerm;46511;53.148;8.204;2024-01-30T12:44:50;55.54;44.16;66.00;;
48967;Laerm;46511;53.148;8.204;2024-01-30T12:47:21;53.76;44.23;65.72;;
48967;Laerm;46511;53.148;8.204;2024-01-30T12:49:53;56.62;43.99;69.56;;
48967;Laerm;46511;53.148;8.204;2024-01-30T12:52:25;53.48;44.69;67.97;;
48967;Laerm;46511;53.148;8.204;2024-01-30T12:54:56;60.38;44.54;75.64;;
48967;Laerm;46511;53.148;8.204;2024-01-30T12:57:27;55.45;44.31;69.30;;
48967;Laerm;46511;53.148;8.204;2024-01-30T12:59:59;54.40;43.68;64.90;;
48967;Laerm;46511;53.148;8.204;2024-01-30T13:02:30;55.36;44.43;65.47;;
48967;Laerm;46511;53.148;8.204;2024-01-30T13:05:06;53.00;43.94;62.64;;
48967;Laerm;46511;53.148;8.204;2024-01-30T13:07:38;54.77;45.39;65.27;;
48967;Laerm;46511;53.148;8.204;2024-01-30T13:10:10;54.52;44.31;67.31;;
48967;Laerm;46511;53.148;8.204;2024-01-30T13:12:41;56.89;44.80;68.75;;
48967;Laerm;46511;53.148;8.204;2024-01-30T13:15:13;56.56;44.87;66.74;;
48967;Laerm;46511;53.148;8.204;2024-01-30T13:17:44;57.17;44.65;66.70;;
48967;Laerm;46511;53.148;8.204;2024-01-30T13:20:18;53.64;43.86;63.93;;
48967;Laerm;46511;53.148;8.204;2024-01-30T13:22:48;56.50;47.38;66.52;;
48967;Laerm;46511;53.148;8.204;2024-01-30T13:25:17;56.26;45.23;72.40;;
48967;Laerm;46511;53.148;8.204;2024-01-30T13:27:48;56.41;45.11;67.46;;
48967;Laerm;46511;53.148;8.204;2024-01-30T13:30:20;54.81;44.07;67.33;;
48967;Laerm;46511;53.148;8.204;2024-01-30T13:32:51;54.12;44.90;64.90;;
48967;Laerm;46511;53.148;8.204;2024-01-30T13:35:22;58.32;45.75;70.65;;
48967;Laerm;46511;53.148;8.204;2024-01-30T13:37:55;55.63;45.42;66.24;;
48967;Laerm;46511;53.148;8.204;2024-01-30T13:40:26;57.79;44.73;75.38;;
48967;Laerm;46511;53.148;8.204;2024-01-30T13:42:57;57.42;45.30;70.10;;
48967;Laerm;46511;53.148;8.204;2024-01-30T13:45:29;56.77;45.17;76.95;;
48967;Laerm;46511;53.148;8.204;2024-01-30T13:48:01;53.98;44.54;66.29;;
48967;Laerm;46511;53.148;8.204;2024-01-30T13:50:32;58.21;45.42;68.22;;
48967;Laerm;46511;53.148;8.204;2024-01-30T13:53:04;57.69;44.35;71.63;;
48967;Laerm;46511;53.148;8.204;2024-01-30T13:55:35;55.70;44.73;79.36;;